Time;durP1;ratioP1;P1;durP2;ratioP2;P2;SDS_P1;SDS_P2;PMS_P1;PMS_P2;Temp;Humidity;BMP_temperature;BMP_pressure;BME280_temperature;BME280_humidity;BME280_pressure;Samples;Min_cycle;Max_cycle;Signal;HPM_P1;HPM_P2
2021/05/18 00:01:31;;;;;;;5.83;2.60;;;10.50;99.90;;;;;;5017229;28;20613;-76
2021/05/18 00:03:58;;;;;;;5.43;2.47;;;10.50;99.90;;;;;;5017141;28;20192;-76
2021/05/18 00:06:23;;;;;;;4.20;2.90;;;10.50;99.90;;;;;;5031027;28;20188;-76
2021/05/18 00:11:45;;;;;;;5.57;2.57;;;10.60;99.90;;;;;;5033572;28;20192;-76
2021/05/18 00:14:22;;;;;;;4.90;2.17;;;10.60;99.90;;;;;;5032929;28;20181;-76
2021/05/18 00:16:50;;;;;;;3.73;2.30;;;10.60;99.90;;;;;;5033051;28;20182;-75
2021/05/18 00:19:16;;;;;;;4.07;2.30;;;10.50;99.90;;;;;;5016094;28;20237;-76
2021/05/18 00:21:41;;;;;;;2.57;2.13;;;10.40;99.90;;;;;;5016686;28;20248;-76
2021/05/18 00:24:07;;;;;;;3.53;2.10;;;10.40;99.90;;;;;;5033137;28;20171;-76
2021/05/18 00:26:33;;;;;;;4.63;2.53;;;10.40;99.90;;;;;;5016239;28;20173;-77
2021/05/18 00:28:59;;;;;;;6.70;2.27;;;10.40;99.90;;;;;;5016255;28;20696;-76
2021/05/18 00:31:25;;;;;;;6.93;2.47;;;10.30;99.90;;;;;;5016308;28;20621;-76
2021/05/18 00:33:51;;;;;;;4.77;2.20;;;10.30;99.90;;;;;;5032291;28;20212;-76
2021/05/18 00:36:16;;;;;;;5.73;2.47;;;10.30;99.90;;;;;;5031474;28;20175;-76
2021/05/18 00:38:42;;;;;;;5.20;2.37;;;10.30;99.90;;;;;;5014370;28;20260;-75
2021/05/18 00:41:08;;;;;;;5.37;2.70;;;10.30;99.90;;;;;;5013588;28;20194;-76
2021/05/18 00:43:34;;;;;;;4.93;2.23;;;10.40;99.90;;;;;;5015245;28;20707;-77
2021/05/18 00:46:01;;;;;;;4.80;2.57;;;10.40;99.90;;;;;;5031623;28;20252;-76
2021/05/18 00:48:27;;;;;;;6.43;2.67;;;10.40;99.90;;;;;;5031779;28;20193;-77
2021/05/18 00:50:55;;;;;;;4.70;2.33;;;10.40;99.90;;;;;;5031879;28;20210;-76
2021/05/18 00:53:20;;;;;;;5.80;2.77;;;10.50;99.90;;;;;;5031379;28;20645;-77
2021/05/18 00:56:21;;;;;;;8.83;2.87;;;10.50;99.90;;;;;;5031470;28;20244;-76
2021/05/18 00:58:47;;;;;;;7.50;3.13;;;10.50;99.90;;;;;;5031786;28;20284;-76
2021/05/18 01:01:20;;;;;;;5.87;2.83;;;10.50;99.90;;;;;;5031053;28;20316;-77
2021/05/18 01:03:47;;;;;;;6.50;2.97;;;10.50;99.90;;;;;;5015348;28;20178;-77
2021/05/18 01:06:29;;;;;;;5.10;3.03;;;10.50;99.90;;;;;;5014512;28;20220;-76
2021/05/18 01:09:10;;;;;;;4.80;2.73;;;10.50;99.90;;;;;;5017491;28;20240;-76
2021/05/18 01:11:47;;;;;;;5.67;2.87;;;10.50;99.90;;;;;;5015193;28;20190;-77
2021/05/18 01:14:15;;;;;;;6.07;3.00;;;10.50;99.90;;;;;;5014566;28;20605;-77
2021/05/18 01:16:50;;;;;;;6.70;2.83;;;10.40;99.90;;;;;;5030808;28;20243;-76
2021/05/18 01:19:25;;;;;;;4.20;2.70;;;10.50;99.90;;;;;;5031503;28;20205;-76
2021/05/18 01:21:51;;;;;;;4.90;2.70;;;10.40;99.90;;;;;;5014790;28;20185;-76
2021/05/18 01:24:17;;;;;;;7.00;3.27;;;10.40;99.90;;;;;;5014339;28;20557;-76
2021/05/18 01:26:43;;;;;;;5.27;3.03;;;10.40;99.90;;;;;;5015376;28;20185;-77
2021/05/18 01:29:09;;;;;;;8.43;3.00;;;10.40;99.90;;;;;;5030894;28;20209;-76
2021/05/18 01:31:37;;;;;;;3.60;2.53;;;10.30;99.90;;;;;;5013959;28;20733;-76
2021/05/18 01:34:04;;;;;;;6.77;2.90;;;10.30;99.90;;;;;;5031697;28;20231;-76
2021/05/18 01:36:33;;;;;;;8.30;2.97;;;10.30;99.90;;;;;;5030484;28;20220;-76
2021/05/18 01:39:09;;;;;;;8.63;3.07;;;10.30;99.90;;;;;;5014350;28;20218;-76
2021/05/18 01:44:23;;;;;;;6.73;2.87;;;10.30;99.90;;;;;;5030940;28;20181;-76
2021/05/18 01:46:49;;;;;;;4.83;2.77;;;10.20;99.90;;;;;;5030456;28;20174;-76
2021/05/18 01:49:16;;;;;;;4.40;2.50;;;10.20;99.90;;;;;;5013384;28;20193;-75
2021/05/18 01:51:50;;;;;;;5.07;2.83;;;10.20;99.90;;;;;;5030595;28;20193;-76
2021/05/18 01:54:23;;;;;;;4.97;2.67;;;10.20;99.90;;;;;;5013925;28;20642;-76
2021/05/18 01:59:26;;;;;;;6.97;2.93;;;10.20;99.90;;;;;;5031516;28;20699;-76
2021/05/18 02:02:04;;;;;;;6.97;3.03;;;10.20;99.90;;;;;;5015317;28;20312;-76
2021/05/18 02:04:36;;;;;;;4.03;2.60;;;10.10;99.90;;;;;;5031436;28;20173;-76
2021/05/18 02:07:04;;;;;;;7.63;2.70;;;10.10;99.90;;;;;;5031649;28;20182;-76
2021/05/18 02:09:30;;;;;;;5.90;2.80;;;10.10;99.90;;;;;;4998781;28;20226;-76
2021/05/18 02:11:56;;;;;;;4.47;2.70;;;10.10;99.90;;;;;;5030078;28;20310;-75
2021/05/18 02:14:28;;;;;;;5.90;3.10;;;10.00;99.90;;;;;;5014867;28;20208;-76
2021/05/18 02:17:00;;;;;;;7.17;3.03;;;10.00;99.90;;;;;;5030632;28;20174;-76
2021/05/18 02:19:40;;;;;;;6.50;2.80;;;9.90;99.90;;;;;;5030597;28;20244;-75
2021/05/18 02:24:35;;;;;;;5.20;2.40;;;9.90;99.90;;;;;;5001165;28;20196;-76
2021/05/18 02:25:05;;;;;;;6.23;2.10;;;9.80;99.90;;;;;;5018648;28;20544;-76
2021/05/18 02:27:31;;;;;;;5.40;2.83;;;9.70;99.90;;;;;;5014988;28;20698;-76
2021/05/18 02:29:58;;;;;;;4.90;2.60;;;9.60;99.90;;;;;;5032577;28;20202;-76
2021/05/18 02:32:25;;;;;;;3.47;2.50;;;9.50;99.90;;;;;;5033570;28;20200;-77
2021/05/18 02:34:51;;;;;;;5.13;2.37;;;9.40;99.90;;;;;;5017765;28;20177;-76
2021/05/18 02:37:16;;;;;;;5.60;2.60;;;9.30;99.90;;;;;;5034179;28;20214;-76
2021/05/18 02:39:42;;;;;;;3.47;2.33;;;9.20;99.90;;;;;;5017670;28;20221;-76
2021/05/18 02:42:07;;;;;;;8.00;2.80;;;9.10;99.90;;;;;;5035123;28;20185;-76
2021/05/18 02:50:15;;;;;;;5.53;2.70;;;9.20;99.90;;;;;;5034692;28;20205;-76
2021/05/18 02:52:43;;;;;;;6.37;2.90;;;9.10;99.90;;;;;;5034202;28;20181;-76
2021/05/18 02:55:14;;;;;;;4.70;2.50;;;9.10;99.90;;;;;;5033706;28;20178;-76
2021/05/18 02:57:46;;;;;;;4.17;2.37;;;9.10;99.90;;;;;;5034436;28;20212;-76
2021/05/18 03:00:18;;;;;;;4.03;2.40;;;9.10;99.90;;;;;;5019470;28;20237;-76
2021/05/18 03:02:43;;;;;;;5.00;3.03;;;9.10;99.90;;;;;;5008133;28;20180;-76
2021/05/18 03:05:10;;;;;;;5.00;2.60;;;9.10;99.90;;;;;;5017672;28;20183;-76
2021/05/18 03:07:35;;;;;;;6.60;3.23;;;9.10;99.90;;;;;;5034173;28;20783;-76
2021/05/18 03:10:03;;;;;;;6.67;2.53;;;9.10;99.90;;;;;;5018096;28;20276;-76
2021/05/18 03:12:30;;;;;;;7.00;3.07;;;9.10;99.90;;;;;;5000651;28;20205;-76
2021/05/18 03:14:56;;;;;;;7.80;3.00;;;9.10;99.90;;;;;;5016903;28;20196;-75
2021/05/18 03:17:21;;;;;;;4.40;2.47;;;9.10;99.90;;;;;;5033620;28;20206;-76
2021/05/18 03:19:49;;;;;;;5.17;3.13;;;9.10;99.90;;;;;;5016916;28;20194;-76
2021/05/18 03:22:14;;;;;;;5.27;2.80;;;9.10;99.90;;;;;;5017848;28;20184;-76
2021/05/18 03:24:42;;;;;;;4.10;2.67;;;9.10;99.90;;;;;;5018208;28;20733;-76
2021/05/18 03:27:10;;;;;;;5.53;2.47;;;9.00;99.90;;;;;;5002327;28;20213;-75
2021/05/18 03:29:38;;;;;;;3.90;2.30;;;9.00;99.90;;;;;;5001046;28;20233;-75
2021/05/18 03:34:51;;;;;;;5.57;2.63;;;8.90;99.90;;;;;;5020140;28;20215;-76
2021/05/18 03:40:10;;;;;;;4.57;2.70;;;8.90;99.90;;;;;;5033485;28;20203;-76
2021/05/18 03:42:42;;;;;;;5.87;3.10;;;9.00;99.90;;;;;;5032911;28;20175;-75
2021/05/18 03:45:14;;;;;;;5.97;3.40;;;9.00;99.90;;;;;;5017556;28;20713;-76
2021/05/18 04:04:21;;;;;;;4.73;2.50;;;9.20;99.90;;;;;;5015325;28;20198;-76
2021/05/18 04:17:55;;;;;;;7.57;3.13;;;9.40;99.90;;;;;;5019690;28;20636;-77
2021/05/18 04:20:39;;;;;;;6.53;2.90;;;9.40;99.90;;;;;;5019260;28;20190;-77
2021/05/18 04:26:10;;;;;;;8.50;3.57;;;9.30;99.90;;;;;;5034657;28;20323;-77
2021/05/18 05:01:32;;;;;;;6.33;3.37;;;9.90;99.90;;;;;;5032284;28;20185;-77
2021/05/18 05:14:30;;;;;;;8.20;4.00;;;10.20;99.90;;;;;;4967267;28;20235;-77
2021/05/18 05:16:57;;;;;;;5.80;3.73;;;10.30;99.90;;;;;;5015528;28;20183;-77
2021/05/18 05:19:27;;;;;;;6.83;4.10;;;10.50;99.90;;;;;;4999846;28;20202;-77
2021/05/18 05:21:57;;;;;;;8.30;4.70;;;10.60;99.90;;;;;;5016960;28;20184;-77
2021/05/18 05:24:23;;;;;;;9.70;4.70;;;10.70;99.90;;;;;;4995821;28;20197;-77
2021/05/18 05:26:51;;;;;;;7.33;4.40;;;10.70;99.90;;;;;;4992198;28;20264;-77
2021/05/18 05:29:19;;;;;;;8.40;4.53;;;10.80;99.90;;;;;;4995452;28;20278;-77
2021/05/18 05:31:44;;;;;;;9.33;4.60;;;10.90;99.90;;;;;;5015794;28;20211;-77
2021/05/18 05:34:10;;;;;;;9.57;5.37;;;11.00;99.90;;;;;;4999098;28;20596;-77
2021/05/18 05:36:39;;;;;;;9.90;4.80;;;11.00;99.90;;;;;;5031563;28;20273;-77
2021/05/18 05:39:12;;;;;;;11.63;5.10;;;11.20;99.90;;;;;;5031350;28;20221;-77
2021/05/18 05:41:39;;;;;;;9.00;4.93;;;11.30;99.90;;;;;;5031200;28;20815;-76
2021/05/18 05:44:07;;;;;;;9.67;4.50;;;11.40;99.90;;;;;;4998760;28;20224;-77
2021/05/18 05:46:35;;;;;;;8.97;5.17;;;11.40;99.90;;;;;;5016086;28;20166;-78
2021/05/18 05:49:01;;;;;;;9.50;5.00;;;11.40;99.90;;;;;;5006835;28;20214;-77
2021/05/18 05:51:29;;;;;;;9.00;4.90;;;11.40;99.90;;;;;;5005858;28;20259;-77
2021/05/18 05:54:00;;;;;;;8.03;4.43;;;11.30;99.90;;;;;;5008436;28;20201;-76
2021/05/18 05:56:27;;;;;;;10.23;5.33;;;11.20;99.90;;;;;;5008617;28;20194;-77
2021/05/18 05:59:04;;;;;;;11.60;5.47;;;11.20;99.90;;;;;;5022670;28;20692;-77
2021/05/18 06:01:31;;;;;;;9.57;4.87;;;11.10;99.90;;;;;;5021670;28;20182;-77
2021/05/18 06:03:57;;;;;;;10.10;5.07;;;11.00;99.90;;;;;;5020937;28;20185;-77
2021/05/18 06:06:23;;;;;;;9.80;5.20;;;11.00;99.90;;;;;;5035762;28;20546;-77
2021/05/18 06:08:48;;;;;;;12.73;5.40;;;11.00;99.90;;;;;;5002795;28;20189;-77
2021/05/18 06:13:58;;;;;;;8.33;5.07;;;10.80;99.90;;;;;;5018553;28;20665;-77
2021/05/18 06:48:32;;;;;;;12.23;6.83;;;10.80;99.90;;;;;;5019943;28;20208;-77
2021/05/18 06:50:57;;;;;;;14.60;7.17;;;10.80;99.90;;;;;;5017876;28;20197;-77
2021/05/18 06:53:24;;;;;;;14.30;7.20;;;10.80;99.90;;;;;;5035165;28;20542;-77
2021/05/18 06:55:52;;;;;;;10.27;5.87;;;10.80;99.90;;;;;;5034835;28;20302;-78
2021/05/18 06:58:46;;;;;;;11.83;6.47;;;10.80;99.90;;;;;;5018526;28;20256;-76
2021/05/18 07:01:12;;;;;;;13.97;6.73;;;10.80;99.90;;;;;;5033905;28;20197;-77
2021/05/18 07:03:45;;;;;;;17.07;7.50;;;10.80;99.90;;;;;;5018381;28;20177;-77
2021/05/18 07:11:14;;;;;;;13.23;6.40;;;10.90;99.90;;;;;;5016461;28;20261;-79
2021/05/18 07:13:39;;;;;;;13.70;7.63;;;10.80;99.90;;;;;;4983697;28;20205;-79
2021/05/18 07:16:06;;;;;;;13.90;6.90;;;10.90;99.90;;;;;;4999343;28;20186;-78
2021/05/18 07:18:31;;;;;;;15.27;7.37;;;11.00;99.90;;;;;;4999474;28;20229;-77
2021/05/18 07:21:02;;;;;;;17.07;7.53;;;11.00;99.90;;;;;;4983569;28;20230;-77
2021/05/18 07:23:35;;;;;;;14.03;7.33;;;11.00;99.90;;;;;;5016150;28;20163;-78
2021/05/18 07:26:02;;;;;;;14.87;7.20;;;11.00;99.90;;;;;;4983681;28;20191;-78
2021/05/18 07:28:34;;;;;;;14.93;7.27;;;11.00;99.90;;;;;;4999389;28;20191;-77
2021/05/18 07:31:08;;;;;;;12.40;7.07;;;11.00;99.90;;;;;;5016613;28;20499;-78
2021/05/18 07:33:35;;;;;;;13.67;7.20;;;11.00;99.90;;;;;;5015569;28;20277;-77
2021/05/18 07:36:07;;;;;;;12.47;7.20;;;11.00;99.90;;;;;;4999286;28;20221;-77
2021/05/18 07:38:37;;;;;;;15.43;6.50;;;11.10;99.90;;;;;;4999503;28;20677;-77
2021/05/18 07:41:05;;;;;;;15.47;7.00;;;11.10;99.90;;;;;;5014732;28;20178;-77
2021/05/18 07:43:31;;;;;;;13.90;7.90;;;11.10;99.90;;;;;;4984411;28;20183;-77
2021/05/18 07:45:59;;;;;;;12.03;7.23;;;11.30;99.90;;;;;;4985436;28;20261;-78
2021/05/18 07:59:21;;;;;;;10.87;6.03;;;11.60;99.90;;;;;;5008484;28;20319;-78
2021/05/18 08:07:19;;;;;;;10.03;5.80;;;11.70;99.90;;;;;;5000573;28;20304;-77
2021/05/18 08:09:54;;;;;;;8.47;5.20;;;11.60;99.90;;;;;;4982337;28;20221;-78
2021/05/18 08:12:22;;;;;;;10.10;5.43;;;11.50;99.90;;;;;;4999461;28;20182;-77
2021/05/18 08:14:57;;;;;;;8.10;5.27;;;11.60;99.90;;;;;;4998513;28;20554;-77
2021/05/18 08:17:26;;;;;;;8.90;5.07;;;11.60;99.90;;;;;;4984842;28;20259;-77
2021/05/18 08:20:17;;;;;;;7.53;4.90;;;11.70;99.90;;;;;;5000617;28;20190;-77
2021/05/18 08:55:53;;;;;;;6.17;3.70;;;12.00;99.90;;;;;;5001237;28;20571;-78
2021/05/18 09:48:48;;;;;;;2.10;1.80;;;13.80;99.90;;;;;;4998344;28;20210;-78
2021/05/18 10:38:46;;;;;;;1.43;1.07;;;10.90;99.90;;;;;;5019181;28;20205;-77
2021/05/18 10:41:18;;;;;;;1.30;0.90;;;10.70;99.90;;;;;;5014305;28;20195;-77
2021/05/18 10:43:57;;;;;;;1.17;0.67;;;10.50;99.90;;;;;;5017494;28;20235;-78
2021/05/18 10:46:46;;;;;;;1.10;0.73;;;10.30;99.90;;;;;;5002270;28;20273;-79
2021/05/18 10:49:18;;;;;;;1.77;1.07;;;10.20;99.90;;;;;;5017895;28;20203;-78
2021/05/18 10:51:51;;;;;;;1.00;0.80;;;10.20;99.90;;;;;;5016013;28;20203;-77
2021/05/18 10:54:27;;;;;;;1.77;1.20;;;10.30;99.90;;;;;;5015029;28;20229;-78
2021/05/18 10:56:53;;;;;;;1.87;1.10;;;10.30;99.90;;;;;;5014435;28;20197;-77
2021/05/18 10:59:37;;;;;;;1.87;1.30;;;10.30;99.90;;;;;;5024667;28;20304;-78
2021/05/18 11:02:21;;;;;;;3.03;1.23;;;10.40;99.90;;;;;;5021824;28;20583;-78
2021/05/18 11:04:55;;;;;;;2.30;1.37;;;10.40;99.90;;;;;;5034129;28;20188;-78
2021/05/18 11:07:34;;;;;;;1.90;1.47;;;10.50;99.90;;;;;;5029250;28;20206;-78
2021/05/18 11:10:01;;;;;;;1.83;1.27;;;10.80;99.90;;;;;;5024649;28;20219;-77
2021/05/18 11:12:27;;;;;;;2.03;1.47;;;11.00;99.90;;;;;;4983945;28;20191;-77
2021/05/18 11:14:56;;;;;;;2.60;1.43;;;11.10;99.90;;;;;;4984425;28;20202;-77
2021/05/18 11:17:28;;;;;;;2.23;1.60;;;11.40;99.90;;;;;;5009713;28;20209;-77
2021/05/18 11:20:09;;;;;;;2.33;1.70;;;11.60;99.90;;;;;;5003536;28;20569;-76
2021/05/18 11:26:07;;;;;;;1.53;1.10;;;11.80;99.90;;;;;;5036311;28;20238;-79
2021/05/18 11:29:01;;;;;;;1.60;0.73;;;11.70;99.90;;;;;;5017633;28;20212;-77
2021/05/18 11:31:27;;;;;;;1.10;0.90;;;11.70;99.90;;;;;;4999092;28;20199;-77
2021/05/18 11:33:57;;;;;;;1.00;0.90;;;11.80;99.90;;;;;;4998833;28;20185;-78
2021/05/18 11:36:28;;;;;;;1.50;0.90;;;11.90;99.90;;;;;;5011403;28;20182;-79
2021/05/18 11:39:06;;;;;;;0.97;0.87;;;12.00;99.90;;;;;;5001391;28;20218;-78
2021/05/18 11:41:40;;;;;;;2.77;1.07;;;12.10;99.90;;;;;;5022873;28;20258;-80
2021/05/18 11:44:07;;;;;;;1.77;1.10;;;12.20;99.90;;;;;;5038321;28;20167;-80
2021/05/18 11:46:34;;;;;;;1.30;0.90;;;12.30;99.90;;;;;;5005270;28;20188;-80
2021/05/18 11:49:13;;;;;;;1.23;0.90;;;12.30;99.90;;;;;;5019132;28;20237;-80
2021/05/18 11:51:52;;;;;;;1.80;0.97;;;12.40;99.90;;;;;;4987347;28;20669;-80
2021/05/18 11:54:20;;;;;;;1.20;1.00;;;12.40;99.90;;;;;;5001660;28;20186;-80
2021/05/18 11:56:48;;;;;;;1.73;0.90;;;12.50;99.90;;;;;;4997792;28;20184;-81
2021/05/18 11:59:15;;;;;;;1.50;1.00;;;12.50;99.90;;;;;;4986409;28;20222;-81
2021/05/18 12:01:53;;;;;;;2.50;1.37;;;12.60;99.90;;;;;;5020256;28;20673;-80
2021/05/18 12:04:24;;;;;;;2.80;1.90;;;12.60;99.90;;;;;;5036072;28;20182;-79
2021/05/18 12:07:07;;;;;;;2.47;1.60;;;12.70;99.90;;;;;;5020074;28;20209;-79
2021/05/18 12:09:35;;;;;;;3.27;2.03;;;12.70;99.90;;;;;;5035602;28;20237;-78
2021/05/18 12:12:06;;;;;;;3.17;2.20;;;12.70;99.90;;;;;;5020058;28;20179;-79
2021/05/18 12:14:33;;;;;;;2.53;1.80;;;12.70;99.90;;;;;;5052754;28;20183;-78
2021/05/18 12:16:59;;;;;;;3.50;2.27;;;12.80;99.90;;;;;;5021307;28;20231;-80
2021/05/18 12:19:24;;;;;;;2.57;1.87;;;12.80;99.90;;;;;;5025942;28;20203;-79
2021/05/18 12:21:55;;;;;;;2.93;1.93;;;12.80;99.90;;;;;;5019377;28;20298;-78
2021/05/18 12:24:23;;;;;;;3.27;2.20;;;12.90;99.90;;;;;;5003181;28;20186;-79
2021/05/18 12:27:04;;;;;;;3.80;2.40;;;13.10;99.90;;;;;;5011709;28;20183;-79
2021/05/18 12:32:35;;;;;;;3.57;2.40;;;13.50;99.90;;;;;;5342966;23;20587;-75
2021/05/18 12:35:03;;;;;;;3.50;2.50;;;13.70;99.90;;;;;;4998009;28;20206;-74
2021/05/18 12:37:43;;;;;;;5.37;2.70;;;13.80;99.90;;;;;;5022359;28;20222;-75
2021/05/18 12:40:18;;;;;;;3.83;2.57;;;14.10;99.90;;;;;;5006992;28;20262;-75
2021/05/18 12:42:44;;;;;;;3.60;2.27;;;14.30;99.90;;;;;;4997213;28;20203;-75
2021/05/18 12:45:20;;;;;;;3.10;2.30;;;14.40;99.90;;;;;;5002299;28;20182;-78
2021/05/18 12:47:59;;;;;;;3.63;2.37;;;14.50;99.90;;;;;;4984564;28;20653;-78
2021/05/18 12:50:57;;;;;;;3.27;2.27;;;14.90;99.90;;;;;;5019505;28;20607;-81
2021/05/18 12:53:24;;;;;;;2.57;1.90;;;14.70;99.90;;;;;;4995475;28;20619;-78
2021/05/18 12:55:51;;;;;;;2.77;2.17;;;14.50;99.90;;;;;;4980682;28;20558;-79
2021/05/18 12:58:28;;;;;;;2.60;1.97;;;14.30;99.90;;;;;;5025016;23;20599;-73
2021/05/18 13:01:13;;;;;;;2.90;2.00;;;14.40;99.90;;;;;;5011361;28;20545;-72
2021/05/18 13:03:39;;;;;;;2.23;1.90;;;14.60;99.90;;;;;;5012681;28;20179;-73
2021/05/18 13:06:05;;;;;;;2.80;1.73;;;14.70;99.90;;;;;;5011263;28;20673;-70
2021/05/18 13:08:32;;;;;;;2.70;1.60;;;14.80;99.90;;;;;;5011710;28;20223;-70
2021/05/18 13:13:54;;;;;;;1.80;1.60;;;15.00;99.90;;;;;;5026176;28;20230;-72
2021/05/18 13:16:21;;;;;;;2.40;1.90;;;15.10;99.90;;;;;;5028074;28;20590;-73
2021/05/18 13:18:59;;;;;;;2.90;1.90;;;15.20;99.90;;;;;;5031436;28;20658;-73
2021/05/18 13:21:35;;;;;;;2.60;2.03;;;15.20;99.90;;;;;;5030679;28;20228;-70
2021/05/18 13:26:34;;;;;;;2.20;1.60;;;15.10;99.90;;;;;;5028348;28;20171;-70
2021/05/18 13:29:03;;;;;;;3.73;2.17;;;15.00;99.90;;;;;;5012849;28;20245;-70
2021/05/18 13:31:29;;;;;;;3.43;2.27;;;14.90;99.90;;;;;;5029773;28;20205;-70
2021/05/18 13:33:55;;;;;;;3.37;1.93;;;14.90;99.90;;;;;;5012529;28;20171;-70
2021/05/18 13:36:20;;;;;;;4.17;2.27;;;15.00;99.90;;;;;;5030014;28;20175;-70
2021/05/18 13:38:46;;;;;;;2.80;1.90;;;15.00;99.90;;;;;;5029334;28;20207;-70
2021/05/18 13:41:11;;;;;;;3.00;2.20;;;15.00;99.90;;;;;;5013938;28;20191;-70
2021/05/18 13:43:37;;;;;;;4.03;2.33;;;15.00;99.90;;;;;;5030646;28;20179;-70
2021/05/18 13:46:03;;;;;;;3.23;2.40;;;15.10;99.90;;;;;;5031924;28;20662;-70
2021/05/18 13:48:28;;;;;;;3.57;2.30;;;15.00;99.90;;;;;;5030364;28;20567;-70
2021/05/18 13:50:54;;;;;;;3.17;2.07;;;15.20;99.90;;;;;;5031685;28;20187;-70
2021/05/18 13:53:19;;;;;;;3.77;2.30;;;15.00;99.90;;;;;;4997811;28;20269;-70
2021/05/18 13:55:46;;;;;;;3.37;2.20;;;14.90;99.90;;;;;;5030724;28;20171;-70
2021/05/18 13:58:12;;;;;;;3.80;2.40;;;14.60;99.90;;;;;;5030362;28;20206;-69
2021/05/18 14:00:38;;;;;;;4.07;2.37;;;14.40;99.90;;;;;;5031220;28;20551;-70
2021/05/18 14:03:03;;;;;;;3.43;2.33;;;14.20;99.90;;;;;;5014062;28;20518;-70
2021/05/18 14:05:29;;;;;;;3.57;2.40;;;13.90;99.90;;;;;;5014105;28;20170;-70
2021/05/18 14:08:26;;;;;;;3.70;2.20;;;13.70;99.90;;;;;;5030227;28;20549;-70
2021/05/18 14:11:07;;;;;;;3.97;2.43;;;13.40;99.90;;;;;;5030382;28;20258;-70
2021/05/18 14:13:36;;;;;;;2.97;2.13;;;12.90;99.90;;;;;;5030328;28;20749;-70
2021/05/18 14:16:05;;;;;;;2.93;2.07;;;12.70;99.90;;;;;;5030479;28;20277;-70
2021/05/18 14:18:32;;;;;;;3.03;2.20;;;12.50;99.90;;;;;;5029922;28;20194;-70
2021/05/18 14:20:58;;;;;;;3.47;2.20;;;12.40;99.90;;;;;;4997444;28;20179;-70
2021/05/18 14:23:25;;;;;;;3.53;2.40;;;12.40;99.90;;;;;;5014051;28;20254;-70
2021/05/18 14:25:52;;;;;;;3.50;2.30;;;12.40;99.90;;;;;;5032225;28;20171;-70
2021/05/18 14:28:17;;;;;;;4.67;2.87;;;12.60;99.90;;;;;;5034047;28;20672;-70
2021/05/18 14:30:43;;;;;;;4.47;2.30;;;12.60;99.90;;;;;;5035008;28;20175;-70
2021/05/18 14:33:09;;;;;;;5.27;2.50;;;12.80;99.90;;;;;;5034182;28;20182;-69
2021/05/18 14:35:34;;;;;;;5.07;2.60;;;13.00;99.90;;;;;;5034358;28;20183;-70
2021/05/18 14:38:07;;;;;;;4.03;2.27;;;13.00;99.90;;;;;;5033743;28;20206;-69
2021/05/18 14:42:50;;;;;;;4.10;2.77;;;12.90;99.90;;;;;;5018471;28;20158;-69
2021/05/18 14:46:19;;;;;;;3.10;2.50;;;13.10;99.90;;;;;;5034188;28;20173;-69
2021/05/18 14:54:19;;;;;;;4.00;2.80;;;13.10;99.90;;;;;;5034500;28;20232;-69
2021/05/18 14:56:45;;;;;;;3.97;2.40;;;13.20;99.90;;;;;;5011944;28;20226;-70
2021/05/18 15:02:32;;;;;;;5.27;3.07;;;13.40;99.90;;;;;;5014227;28;20175;-70
2021/05/18 15:04:58;;;;;;;4.40;2.57;;;13.50;99.90;;;;;;5013543;28;20175;-72
2021/05/18 15:07:23;;;;;;;3.77;2.70;;;13.70;99.90;;;;;;5030065;28;20730;-70
2021/05/18 15:09:49;;;;;;;3.83;2.57;;;13.80;99.90;;;;;;5014712;28;20176;-70
2021/05/18 15:12:14;;;;;;;4.37;2.93;;;13.90;99.90;;;;;;5013428;28;20195;-70
2021/05/18 15:14:40;;;;;;;4.67;3.03;;;14.00;99.90;;;;;;5029771;28;20218;-70
2021/05/18 15:17:06;;;;;;;2.40;1.67;;;14.00;99.90;;;;;;5029812;28;20191;-70
2021/05/18 15:19:32;;;;;;;2.53;1.90;;;14.00;99.90;;;;;;5013395;28;20222;-69
2021/05/18 15:21:59;;;;;;;2.27;1.80;;;14.10;99.90;;;;;;5014433;28;20627;-69
2021/05/18 15:24:25;;;;;;;2.73;1.60;;;14.10;99.90;;;;;;5029391;28;20171;-69
2021/05/18 15:26:51;;;;;;;1.73;1.40;;;14.20;99.90;;;;;;5014395;28;20674;-70
2021/05/18 15:29:16;;;;;;;2.00;1.50;;;14.20;99.90;;;;;;5013164;28;20171;-69
2021/05/18 15:31:42;;;;;;;1.60;1.30;;;14.20;99.90;;;;;;5012920;28;20188;-69
2021/05/18 15:34:08;;;;;;;2.67;1.80;;;14.10;99.90;;;;;;5033826;28;20270;-69
2021/05/18 15:36:33;;;;;;;1.73;1.50;;;14.20;99.90;;;;;;5015909;28;20175;-72
2021/05/18 15:38:59;;;;;;;2.10;1.00;;;14.20;99.90;;;;;;5031498;28;20203;-69
2021/05/18 15:41:24;;;;;;;2.90;1.10;;;14.30;99.90;;;;;;5033037;28;20175;-69
2021/05/18 15:43:50;;;;;;;2.40;1.20;;;14.50;99.90;;;;;;5015904;28;20182;-69
2021/05/18 15:46:16;;;;;;;2.10;1.30;;;14.60;99.90;;;;;;5032085;28;20241;-69
2021/05/18 15:48:41;;;;;;;2.67;1.47;;;14.70;99.90;;;;;;5026824;28;20203;-69
2021/05/18 15:51:07;;;;;;;2.07;1.50;;;14.60;99.90;;;;;;5029232;28;20175;-69
2021/05/18 15:53:32;;;;;;;1.70;1.20;;;14.60;99.90;;;;;;5033819;28;20182;-69
2021/05/18 15:55:58;;;;;;;2.90;1.27;;;14.60;99.90;;;;;;5010019;28;20182;-70
2021/05/18 15:58:24;;;;;;;2.43;1.40;;;14.60;99.90;;;;;;5021983;28;20240;-70
2021/05/18 16:00:51;;;;;;;1.40;1.30;;;14.70;99.90;;;;;;5020982;28;20294;-69
2021/05/18 16:03:17;;;;;;;2.00;1.30;;;14.70;99.90;;;;;;5023509;28;20163;-69
2021/05/18 16:05:43;;;;;;;2.03;1.47;;;14.70;99.90;;;;;;5022464;28;20175;-69
2021/05/18 16:08:58;;;;;;;2.63;1.20;;;14.70;99.90;;;;;;5031480;28;20285;-71
2021/05/18 16:11:02;;;;;;;2.13;1.23;;;14.80;99.90;;;;;;5018150;28;20187;-70
2021/05/18 16:16:49;;;;;;;2.10;1.50;;;14.90;99.90;;;;;;5019298;28;20286;-72
2021/05/18 16:19:15;;;;;;;1.60;1.50;;;14.80;99.90;;;;;;5028718;28;20202;-73
2021/05/18 16:21:40;;;;;;;2.97;1.70;;;14.70;99.90;;;;;;5031717;28;20171;-73
2021/05/18 16:24:06;;;;;;;2.00;1.70;;;14.60;99.90;;;;;;5030671;28;20186;-73
2021/05/18 16:26:33;;;;;;;2.07;1.60;;;14.60;99.90;;;;;;4979541;28;20179;-74
2021/05/18 16:29:00;;;;;;;2.40;1.57;;;14.50;99.90;;;;;;4996143;28;20156;-73
2021/05/18 16:31:26;;;;;;;2.87;1.83;;;14.50;99.90;;;;;;4998070;28;20313;-72
2021/05/18 16:33:52;;;;;;;1.80;1.57;;;14.50;99.90;;;;;;5015627;28;20182;-73
2021/05/18 16:36:18;;;;;;;2.73;1.73;;;14.70;99.90;;;;;;4984388;28;20171;-71
2021/05/18 16:38:44;;;;;;;3.23;1.30;;;14.70;99.90;;;;;;5031537;28;20713;-74
2021/05/18 16:41:10;;;;;;;2.00;1.60;;;14.80;99.90;;;;;;5015221;28;20577;-70
2021/05/18 16:43:35;;;;;;;2.30;1.60;;;14.90;99.90;;;;;;5014516;28;20186;-72
2021/05/18 16:46:01;;;;;;;1.67;1.33;;;15.00;99.90;;;;;;5031156;28;20183;-72
2021/05/18 16:48:27;;;;;;;3.33;1.63;;;15.00;99.90;;;;;;5030443;28;20677;-73
2021/05/18 16:50:54;;;;;;;2.07;1.60;;;15.10;99.90;;;;;;5030144;28;20183;-72
2021/05/18 16:53:20;;;;;;;1.77;1.47;;;15.10;99.90;;;;;;5014640;28;20182;-73
2021/05/18 16:55:45;;;;;;;4.00;2.20;;;15.00;99.90;;;;;;5031531;28;20201;-72
2021/05/18 16:58:11;;;;;;;3.47;1.90;;;15.00;99.90;;;;;;5014691;28;20210;-73
2021/05/18 17:00:36;;;;;;;2.00;1.67;;;15.00;99.90;;;;;;5031293;28;20175;-73
2021/05/18 17:03:02;;;;;;;2.30;1.83;;;15.10;99.90;;;;;;5032609;28;20178;-72
2021/05/18 17:05:30;;;;;;;1.60;1.37;;;15.00;99.90;;;;;;5031638;28;20207;-72
2021/05/18 17:07:55;;;;;;;2.60;1.80;;;15.00;99.90;;;;;;5031413;28;20281;-73
2021/05/18 17:10:22;;;;;;;2.93;1.80;;;14.90;99.90;;;;;;5031161;28;20278;-72
2021/05/18 17:12:50;;;;;;;2.40;1.63;;;14.80;99.90;;;;;;5031561;28;20206;-72
2021/05/18 17:15:17;;;;;;;2.40;1.80;;;14.70;99.90;;;;;;5015244;28;20186;-72
2021/05/18 17:17:43;;;;;;;2.40;1.80;;;14.50;99.90;;;;;;5032040;28;20203;-72
2021/05/18 17:20:09;;;;;;;2.63;2.00;;;14.50;99.90;;;;;;5031460;28;20171;-72
2021/05/18 17:22:35;;;;;;;3.43;1.70;;;14.40;99.90;;;;;;5031165;28;20229;-73
2021/05/18 17:25:00;;;;;;;2.77;1.90;;;14.50;99.90;;;;;;5031098;28;20667;-72
2021/05/18 17:27:26;;;;;;;1.93;1.50;;;14.60;99.90;;;;;;5014414;28;20195;-72
2021/05/18 17:29:51;;;;;;;2.50;1.60;;;14.70;99.90;;;;;;5030852;28;20186;-72
2021/05/18 17:32:17;;;;;;;2.00;1.60;;;14.80;99.90;;;;;;5030669;28;20175;-72
2021/05/18 17:34:43;;;;;;;2.37;1.60;;;14.90;99.90;;;;;;5014549;28;20181;-73
2021/05/18 17:37:08;;;;;;;2.67;1.73;;;14.90;99.90;;;;;;5014338;28;20218;-74
2021/05/18 17:39:34;;;;;;;1.40;1.30;;;15.00;99.90;;;;;;5014198;28;20198;-74
2021/05/18 17:42:00;;;;;;;2.50;1.30;;;14.90;99.90;;;;;;5030696;28;20198;-74
2021/05/18 17:44:28;;;;;;;3.67;1.40;;;14.90;99.90;;;;;;5031626;28;20642;-70
2021/05/18 17:46:55;;;;;;;1.77;1.27;;;14.80;99.90;;;;;;5025898;28;20674;-70
2021/05/18 17:49:21;;;;;;;1.00;0.90;;;14.70;99.90;;;;;;5015244;28;20183;-72
2021/05/18 17:51:50;;;;;;;1.37;1.00;;;14.60;99.90;;;;;;5014122;28;20646;-70
2021/05/18 17:54:15;;;;;;;3.87;1.20;;;14.50;99.90;;;;;;5024670;28;20187;-71
2021/05/18 17:56:41;;;;;;;2.77;1.10;;;14.50;99.90;;;;;;5022150;28;20179;-70
2021/05/18 17:59:07;;;;;;;1.50;1.10;;;14.50;99.90;;;;;;5014691;28;20678;-71
2021/05/18 18:01:35;;;;;;;2.13;1.40;;;14.40;99.90;;;;;;5001478;28;20179;-70
2021/05/18 18:04:01;;;;;;;1.63;1.20;;;14.30;99.90;;;;;;5034549;28;20205;-71
2021/05/18 18:06:27;;;;;;;2.00;1.20;;;14.20;99.90;;;;;;5034531;28;20206;-71